Avioradar koristi kolačiće da bi Vam omogućio jednostavnije i ugodnije korištenje stranice. 

AVIORADAR - Croatian aviation website

METAR & TAF

[Source: ADDS]
METAR
LDZA 252200Z VRB01KT CAVOK 14/14 Q0993 NOSIG =
LDZA 251725Z 2518/2618 22008KT 9999 FEW040 TX15/2613Z TN10/2605Z TEMPO 2518/2521 VRB15G25KT 3000 TSRA FEW030CB SCT040 BECMG 2521/2523 30006KT TEMPO 2603/2609 RA BKN010 PROB30 TEMPO 2603/2606 TSRA FEW030CB BECMG 2604/2606 03010KT LDSP 252200Z 27015KT 9999 FEW030 BKN050 17/11 Q0996 BECMG 32009KT =
LDSP 251725Z 2518/2618 16008KT 9999 SCT030 BKN040 TX23/2518Z TN13/2610Z BECMG 2518/2521 32009KT PROB40 TEMPO 2518/2521 32020G32KT 2000 TSRA SCT025CB BKN030 PROB30 TEMPO 2602/2618 32015G25KT 3000 TSRA FEW025CB BKN030 LDDU 252200Z 22015KT 180V270 CAVOK 23/17 Q0997 =
LDDU 251725Z 2518/2618 13012KT 9999 SCT012 BKN025 TX20/2518Z TN14/2617Z PROB40 TEMPO 2518/2614 27018G30KT 4000 TSRA BKN010 SCT020CB BKN025 BECMG 2520/2522 26012KT BECMG 2614/2616 06005KT LDPL 252200Z 12007KT 9999 FEW025 BKN054 13/11 Q0992 =
COR LDPL 251729Z 2518/2618 20010KT 9999 SCT015 TX18/2613Z TN12/2605Z TEMPO 2518/2610 RA BKN010 PROB40 TEMPO 2518/2606 VRB15G25KT TSRA FEW040CB BECMG 2604/2606 08008KT BECMG 2610/2612 27010KT LDZD 252200Z 27004KT 240V300 9999 FEW030 15/10 Q0995 =
LDZD 251725Z 2518/2618 13007KT 9999 SCT040 TX17/2518Z TN10/2617Z BECMG 2518/2520 24012KT PROB40 TEMPO 2518/2614 24015G25KT 4000 TSRA SCT015 FEW030CB BKN035 BECMG 2612/2614 32012KT LDRI 252200Z 10009KT 9999 -RA OVC025 14/13 Q0993 =
LDRI 251725Z 2518/2618 16012KT 9999 SCT020 BKN040 TX17/2613Z TN13/2605Z PROB30 TEMPO 2518/2606 TSRA FEW025CB BECMG 2604/2606 06010KT TEMPO 2606/2610 06015G25KT BECMG 2610/2612 32006KT LDOS 252200Z 02009KT 9999 SCT033 17/16 Q0993 =
LDOS 251725Z 2518/2618 16012KT 9999 SCT040 TX18/2613Z TN14/2605Z PROB30 TEMPO 2518/2603 TSRA FEW030CB BKN033 PROB40 TEMPO 2519/2523 26020G30KT BECMG 2601/2603 26007KT BECMG 2610/2612 02010KT
TAF
LDZA 251725Z 2518/2618 22008KT 9999 FEW040 TX15/2613Z TN10/2605Z TEMPO 2518/2521 VRB15G25KT 3000 TSRA FEW030CB SCT040 BECMG 2521/2523 30006KT TEMPO 2603/2609 RA BKN010 PROB30 TEMPO 2603/2606 TSRA FEW030CB BECMG 2604/2606 03010KT =
LDSP 251725Z 2518/2618 16008KT 9999 SCT030 BKN040 TX23/2518Z TN13/2610Z BECMG 2518/2521 32009KT PROB40 TEMPO 2518/2521 32020G32KT 2000 TSRA SCT025CB BKN030 PROB30 TEMPO 2602/2618 32015G25KT 3000 TSRA FEW025CB BKN030 =
LDDU 251725Z 2518/2618 13012KT 9999 SCT012 BKN025 TX20/2518Z TN14/2617Z PROB40 TEMPO 2518/2614 27018G30KT 4000 TSRA BKN010 SCT020CB BKN025 BECMG 2520/2522 26012KT BECMG 2614/2616 06005KT =
COR LDPL 251729Z 2518/2618 20010KT 9999 SCT015 TX18/2613Z TN12/2605Z TEMPO 2518/2610 RA BKN010 PROB40 TEMPO 2518/2606 VRB15G25KT TSRA FEW040CB BECMG 2604/2606 08008KT BECMG 2610/2612 27010KT =
LDZD 251725Z 2518/2618 13007KT 9999 SCT040 TX17/2518Z TN10/2617Z BECMG 2518/2520 24012KT PROB40 TEMPO 2518/2614 24015G25KT 4000 TSRA SCT015 FEW030CB BKN035 BECMG 2612/2614 32012KT =
LDRI 251725Z 2518/2618 16012KT 9999 SCT020 BKN040 TX17/2613Z TN13/2605Z PROB30 TEMPO 2518/2606 TSRA FEW025CB BECMG 2604/2606 06010KT TEMPO 2606/2610 06015G25KT BECMG 2610/2612 32006KT =
LDOS 251725Z 2518/2618 16012KT 9999 SCT040 TX18/2613Z TN14/2605Z PROB30 TEMPO 2518/2603 TSRA FEW030CB BKN033 PROB40 TEMPO 2519/2523 26020G30KT BECMG 2601/2603 26007KT BECMG 2610/2612 02010KT =
SR / SS: 04:48 / 16:44 UTC (Zagreb 2020-09-26)